Time;durP1;ratioP1;P1;durP2;ratioP2;P2;SDS_P1;SDS_P2;PMS_P1;PMS_P2;Temp;Humidity;BMP_temperature;BMP_pressure;BME280_temperature;BME280_humidity;BME280_pressure;Samples;Min_cycle;Max_cycle;Signal;HPM_P1;HPM_P2
2022/09/03 00:01:23;;;;;;;2.10;2.00;;;;;;;;;;5088463;27;20223;-67
2022/09/03 00:03:59;;;;;;;3.53;1.80;;;;;;;;;;5106446;27;20310;-67
2022/09/03 00:06:58;;;;;;;2.42;1.95;;;;;;;;;;5090302;27;20211;-67
2022/09/03 00:09:28;;;;;;;2.42;2.25;;;;;;;;;;5078131;27;20208;-67
2022/09/03 00:11:55;;;;;;;2.10;2.00;;;;;;;;;;5089124;28;20812;-67
2022/09/03 00:14:34;;;;;;;2.70;1.88;;;;;;;;;;5093249;27;20203;-67
2022/09/03 00:17:09;;;;;;;3.10;2.40;;;;;;;;;;5091434;27;20239;-67
2022/09/03 00:20:06;;;;;;;2.45;2.22;;;;;;;;;;5093500;27;20207;-68
2022/09/03 00:22:44;;;;;;;4.15;2.55;;;;;;;;;;5058382;28;20384;-67
2022/09/03 00:25:14;;;;;;;2.78;2.40;;;;;;;;;;5094496;27;20682;-68
2022/09/03 00:27:43;;;;;;;3.13;2.33;;;;;;;;;;5077033;27;21307;-68
2022/09/03 00:30:12;;;;;;;2.67;2.10;;;;;;;;;;5101706;27;20238;-67
2022/09/03 00:32:51;;;;;;;2.22;2.10;;;;;;;;;;5092140;27;20231;-67
2022/09/03 00:35:37;;;;;;;3.47;2.17;;;;;;;;;;5092664;27;20652;-67
2022/09/03 00:38:05;;;;;;;2.35;1.95;;;;;;;;;;5085066;27;20212;-66
2022/09/03 00:40:32;;;;;;;5.97;2.17;;;;;;;;;;5093760;27;20200;-66
2022/09/03 00:43:18;;;;;;;2.00;1.90;;;;;;;;;;5098946;27;20765;-67
2022/09/03 00:46:05;;;;;;;3.90;2.60;;;;;;;;;;5090504;27;20252;-67
2022/09/03 00:48:43;;;;;;;2.58;2.38;;;;;;;;;;5102773;27;20207;-66
2022/09/03 00:51:28;;;;;;;5.38;2.20;;;;;;;;;;5116072;27;20204;-68
2022/09/03 00:54:04;;;;;;;2.40;2.10;;;;;;;;;;5098244;27;20699;-66
2022/09/03 00:56:50;;;;;;;2.88;2.38;;;;;;;;;;5110272;27;20328;-65
2022/09/03 00:59:24;;;;;;;3.78;2.63;;;;;;;;;;5106571;27;20203;-65
2022/09/03 01:02:01;;;;;;;2.60;2.40;;;;;;;;;;5105067;27;20235;-65
2022/09/03 01:04:29;;;;;;;2.95;2.75;;;;;;;;;;5127566;27;20288;-65
2022/09/03 01:07:13;;;;;;;2.80;2.33;;;;;;;;;;5105811;27;20225;-64
2022/09/03 01:09:57;;;;;;;2.58;2.38;;;;;;;;;;5117599;27;20202;-65
2022/09/03 01:12:28;;;;;;;2.65;2.40;;;;;;;;;;5118646;27;20231;-67
2022/09/03 01:15:03;;;;;;;2.58;2.35;;;;;;;;;;5116465;27;20233;-68
2022/09/03 01:17:52;;;;;;;3.58;2.30;;;;;;;;;;5118172;27;20218;-64
2022/09/03 01:20:35;;;;;;;3.42;2.50;;;;;;;;;;5123403;27;20215;-65
2022/09/03 01:23:24;;;;;;;2.45;2.35;;;;;;;;;;5115328;27;20234;-69
2022/09/03 01:25:52;;;;;;;2.55;2.35;;;;;;;;;;5112634;27;20184;-69
2022/09/03 01:28:31;;;;;;;5.40;2.50;;;;;;;;;;5124566;27;20207;-65
2022/09/03 01:31:10;;;;;;;5.82;2.58;;;;;;;;;;5126192;27;20316;-64
2022/09/03 01:33:47;;;;;;;3.30;2.35;;;;;;;;;;5118276;27;20203;-68
2022/09/03 01:36:21;;;;;;;2.88;2.63;;;;;;;;;;5103591;27;20233;-64
2022/09/03 01:38:55;;;;;;;4.13;2.97;;;;;;;;;;5112901;27;20196;-68
2022/09/03 01:44:19;;;;;;;2.83;2.38;;;;;;;;;;5130197;27;20208;-64
2022/09/03 01:46:48;;;;;;;4.28;2.70;;;;;;;;;;5114018;27;20216;-64
2022/09/03 01:49:21;;;;;;;2.60;2.40;;;;;;;;;;5113991;27;20196;-64
2022/09/03 01:51:56;;;;;;;4.43;2.55;;;;;;;;;;5132637;27;20940;-63
2022/09/03 01:54:43;;;;;;;2.35;2.15;;;;;;;;;;5130793;27;20227;-66
2022/09/03 01:57:15;;;;;;;2.92;2.22;;;;;;;;;;5111601;27;20315;-67
2022/09/03 02:00:12;;;;;;;2.25;2.03;;;;;;;;;;5111179;27;20229;-65
2022/09/03 02:02:42;;;;;;;4.38;2.55;;;;;;;;;;5112715;27;20390;-66
2022/09/03 02:05:13;;;;;;;2.30;2.10;;;;;;;;;;5120798;27;20209;-69
2022/09/03 02:07:49;;;;;;;3.83;2.58;;;;;;;;;;5132201;27;20242;-69
2022/09/03 02:10:22;;;;;;;2.20;2.10;;;;;;;;;;5117575;27;20225;-68
2022/09/03 02:12:53;;;;;;;2.97;2.28;;;;;;;;;;5136870;27;21514;-68
2022/09/03 02:15:23;;;;;;;3.60;2.38;;;;;;;;;;5138866;27;20184;-64
2022/09/03 02:17:56;;;;;;;3.67;2.42;;;;;;;;;;5123520;27;20219;-64
2022/09/03 02:20:40;;;;;;;3.03;2.67;;;;;;;;;;5142874;27;20278;-65
2022/09/03 02:23:25;;;;;;;2.65;2.45;;;;;;;;;;5134276;27;20448;-66
2022/09/03 02:26:16;;;;;;;3.28;2.97;;;;;;;;;;5115672;27;20291;-66
2022/09/03 02:28:56;;;;;;;3.03;2.75;;;;;;;;;;5138706;27;20203;-66
2022/09/03 02:31:51;;;;;;;4.53;2.63;;;;;;;;;;5141624;27;20215;-64
2022/09/03 02:35:03;;;;;;;4.33;2.40;;;;;;;;;;5129028;27;21596;-63
2022/09/03 02:38:34;;;;;;;4.35;2.28;;;;;;;;;;5139229;27;20202;-66
2022/09/03 02:41:23;;;;;;;2.30;2.20;;;;;;;;;;5119559;27;20295;-66
2022/09/03 02:43:58;;;;;;;3.70;2.40;;;;;;;;;;5123324;27;20206;-66
2022/09/03 02:46:38;;;;;;;3.88;2.70;;;;;;;;;;5132960;27;20238;-67
2022/09/03 02:49:09;;;;;;;4.40;2.40;;;;;;;;;;5120473;27;20222;-66
2022/09/03 02:51:41;;;;;;;4.03;2.30;;;;;;;;;;5120011;27;20219;-66
2022/09/03 02:54:17;;;;;;;2.90;2.40;;;;;;;;;;5118764;27;20209;-66
2022/09/03 02:56:52;;;;;;;3.83;2.70;;;;;;;;;;5122138;27;20672;-64
2022/09/03 02:59:38;;;;;;;2.90;2.50;;;;;;;;;;5118860;27;20203;-67
2022/09/03 03:02:31;;;;;;;3.17;2.88;;;;;;;;;;5144052;27;20223;-68
2022/09/03 03:05:24;;;;;;;2.80;2.50;;;;;;;;;;5146940;27;20183;-66
2022/09/03 03:08:11;;;;;;;2.38;2.13;;;;;;;;;;5126924;27;20192;-66
2022/09/03 03:11:17;;;;;;;4.13;2.30;;;;;;;;;;5134478;27;20188;-65
2022/09/03 03:13:53;;;;;;;3.00;2.27;;;;;;;;;;5140104;27;20207;-66
2022/09/03 03:16:29;;;;;;;5.40;2.70;;;;;;;;;;5124934;27;20221;-63
2022/09/03 03:18:58;;;;;;;3.03;2.83;;;;;;;;;;5141106;27;20192;-66
2022/09/03 03:21:27;;;;;;;2.60;2.40;;;;;;;;;;5123046;27;20231;-66
2022/09/03 03:23:56;;;;;;;2.65;2.45;;;;;;;;;;5122403;27;20208;-64
2022/09/03 03:26:23;;;;;;;4.83;3.03;;;;;;;;;;5136743;27;20200;-70
2022/09/03 03:28:58;;;;;;;3.55;3.30;;;;;;;;;;5122314;27;20249;-64
2022/09/03 03:31:26;;;;;;;3.40;3.10;;;;;;;;;;5128790;28;20215;-63
2022/09/03 03:33:54;;;;;;;4.25;3.85;;;;;;;;;;5129801;27;20195;-69
2022/09/03 03:36:22;;;;;;;5.30;3.53;;;;;;;;;;5108367;27;20212;-69
2022/09/03 03:38:53;;;;;;;3.60;3.30;;;;;;;;;;5104976;27;20229;-69
2022/09/03 03:41:21;;;;;;;4.07;3.27;;;;;;;;;;5106330;27;20295;-66
2022/09/03 03:43:56;;;;;;;3.70;3.40;;;;;;;;;;5104361;27;20203;-69
2022/09/03 03:46:24;;;;;;;4.10;3.60;;;;;;;;;;5105835;28;20627;-69
2022/09/03 03:48:52;;;;;;;4.32;3.63;;;;;;;;;;5107010;28;20200;-65
2022/09/03 03:51:19;;;;;;;4.50;4.20;;;;;;;;;;5107816;27;20203;-66
2022/09/03 03:53:47;;;;;;;4.60;3.93;;;;;;;;;;5114392;28;20259;-68
2022/09/03 03:56:15;;;;;;;6.37;4.10;;;;;;;;;;5113034;28;20195;-64
2022/09/03 03:58:44;;;;;;;4.67;4.27;;;;;;;;;;5133988;27;20279;-67
2022/09/03 04:01:13;;;;;;;5.20;4.40;;;;;;;;;;5133232;27;20203;-67
2022/09/03 04:03:41;;;;;;;4.80;4.40;;;;;;;;;;5131676;27;20242;-66
2022/09/03 04:06:11;;;;;;;6.88;4.93;;;;;;;;;;5126958;27;20219;-65
2022/09/03 04:08:39;;;;;;;4.95;4.50;;;;;;;;;;5123045;27;20211;-69
2022/09/03 04:11:08;;;;;;;6.03;4.18;;;;;;;;;;5132957;27;20267;-65
2022/09/03 04:13:37;;;;;;;5.38;4.80;;;;;;;;;;5125417;27;20204;-66
2022/09/03 04:16:08;;;;;;;4.43;4.00;;;;;;;;;;5144000;27;20227;-66
2022/09/03 04:18:37;;;;;;;4.60;4.30;;;;;;;;;;5139960;27;20191;-66
2022/09/03 04:21:06;;;;;;;4.65;4.25;;;;;;;;;;5142815;27;20203;-65
2022/09/03 04:23:35;;;;;;;4.80;4.50;;;;;;;;;;5125536;27;20227;-63
2022/09/03 04:26:03;;;;;;;4.75;4.28;;;;;;;;;;5121056;27;20276;-67
2022/09/03 04:28:33;;;;;;;5.23;4.73;;;;;;;;;;5116652;27;20303;-64
2022/09/03 04:31:05;;;;;;;4.95;4.55;;;;;;;;;;5101796;27;20208;-67
2022/09/03 04:33:34;;;;;;;4.90;4.50;;;;;;;;;;5103402;27;20203;-67
2022/09/03 04:36:05;;;;;;;4.13;3.83;;;;;;;;;;5109385;27;20203;-67
2022/09/03 04:38:33;;;;;;;4.53;4.13;;;;;;;;;;5122942;27;20251;-67
2022/09/03 04:41:01;;;;;;;6.13;3.90;;;;;;;;;;5095255;27;20199;-67
2022/09/03 04:43:29;;;;;;;4.10;3.70;;;;;;;;;;5092647;27;20223;-69
2022/09/03 04:45:57;;;;;;;4.60;4.13;;;;;;;;;;5095568;27;20202;-69
2022/09/03 04:48:25;;;;;;;4.60;4.20;;;;;;;;;;5112081;27;20199;-68
2022/09/03 04:50:53;;;;;;;3.87;3.57;;;;;;;;;;5095817;27;20207;-69
2022/09/03 04:53:21;;;;;;;5.63;4.23;;;;;;;;;;5097353;27;20219;-68
2022/09/03 04:55:49;;;;;;;7.57;4.10;;;;;;;;;;5108240;27;20207;-68
2022/09/03 04:58:17;;;;;;;7.55;4.30;;;;;;;;;;5093345;27;20259;-69
2022/09/03 05:00:44;;;;;;;4.30;3.90;;;;;;;;;;5103726;27;20543;-68
2022/09/03 05:03:12;;;;;;;4.87;3.73;;;;;;;;;;5104395;27;20227;-69
2022/09/03 05:05:39;;;;;;;3.83;3.30;;;;;;;;;;5101600;27;20191;-68
2022/09/03 05:08:07;;;;;;;4.30;3.90;;;;;;;;;;5099921;27;20196;-69
2022/09/03 05:10:37;;;;;;;5.40;4.00;;;;;;;;;;5126443;27;20698;-69
2022/09/03 05:13:05;;;;;;;4.25;3.58;;;;;;;;;;5111727;27;20223;-68
2022/09/03 05:15:32;;;;;;;4.28;3.88;;;;;;;;;;5129005;27;20211;-69
2022/09/03 05:18:00;;;;;;;4.30;3.90;;;;;;;;;;5107837;27;20319;-68
2022/09/03 05:20:29;;;;;;;4.20;3.90;;;;;;;;;;5105545;27;20211;-68
2022/09/03 05:22:56;;;;;;;6.80;4.75;;;;;;;;;;5105919;27;20716;-69
2022/09/03 05:25:27;;;;;;;4.53;4.13;;;;;;;;;;5116665;27;20204;-68
2022/09/03 05:27:55;;;;;;;4.80;3.92;;;;;;;;;;5099381;27;20245;-69
2022/09/03 05:30:22;;;;;;;4.22;3.90;;;;;;;;;;5095501;27;20210;-68
2022/09/03 05:32:50;;;;;;;5.80;4.78;;;;;;;;;;5095724;27;20219;-69
2022/09/03 05:35:17;;;;;;;4.88;4.40;;;;;;;;;;5091085;27;20214;-69
2022/09/03 05:37:50;;;;;;;5.85;4.38;;;;;;;;;;5093175;27;20573;-69
2022/09/03 05:40:17;;;;;;;4.22;3.92;;;;;;;;;;5098141;27;20218;-69
2022/09/03 05:42:44;;;;;;;4.57;4.15;;;;;;;;;;5091790;27;20252;-68
2022/09/03 05:45:12;;;;;;;4.43;4.03;;;;;;;;;;5090266;27;20211;-69
2022/09/03 05:47:39;;;;;;;3.97;3.67;;;;;;;;;;5091053;27;20203;-67
2022/09/03 05:50:09;;;;;;;4.28;3.97;;;;;;;;;;5093743;27;20223;-69
2022/09/03 05:52:37;;;;;;;5.95;4.40;;;;;;;;;;5085233;27;20693;-68
2022/09/03 05:55:05;;;;;;;5.20;4.70;;;;;;;;;;5092060;27;20204;-68
2022/09/03 05:57:37;;;;;;;5.75;5.10;;;;;;;;;;5090767;27;20669;-68
2022/09/03 06:00:05;;;;;;;6.37;5.53;;;;;;;;;;5099112;27;20212;-69
2022/09/03 06:02:33;;;;;;;6.78;6.07;;;;;;;;;;5094036;27;20283;-68
2022/09/03 06:05:00;;;;;;;9.32;8.40;;;;;;;;;;5094300;27;20552;-68
2022/09/03 06:07:28;;;;;;;11.70;8.40;;;;;;;;;;5095772;27;20241;-67
2022/09/03 06:09:55;;;;;;;10.20;8.50;;;;;;;;;;5110922;27;20219;-69
2022/09/03 06:12:22;;;;;;;7.70;7.00;;;;;;;;;;5089316;27;20228;-69
2022/09/03 06:14:50;;;;;;;6.47;5.88;;;;;;;;;;5091405;27;20207;-69
2022/09/03 06:17:17;;;;;;;7.65;6.53;;;;;;;;;;5100154;27;20199;-69
2022/09/03 06:19:45;;;;;;;5.97;5.47;;;;;;;;;;5090116;27;20219;-69
2022/09/03 06:22:12;;;;;;;6.57;6.05;;;;;;;;;;5111032;27;20693;-69
2022/09/03 06:24:39;;;;;;;6.45;5.80;;;;;;;;;;5090114;27;20599;-67
2022/09/03 06:27:07;;;;;;;6.18;5.68;;;;;;;;;;5091382;27;20227;-69
2022/09/03 06:29:35;;;;;;;12.18;5.68;;;;;;;;;;5105478;27;20635;-68
2022/09/03 06:32:03;;;;;;;5.65;5.25;;;;;;;;;;5096110;27;20280;-68
2022/09/03 06:34:31;;;;;;;6.78;5.82;;;;;;;;;;5088047;27;20231;-68
2022/09/03 06:36:59;;;;;;;6.63;5.10;;;;;;;;;;5087770;27;20199;-67
2022/09/03 06:39:26;;;;;;;6.32;5.03;;;;;;;;;;5107389;27;20208;-68
2022/09/03 06:41:54;;;;;;;5.10;4.68;;;;;;;;;;5088895;27;20223;-68
2022/09/03 06:44:21;;;;;;;5.07;4.43;;;;;;;;;;5090552;27;20601;-69
2022/09/03 06:46:52;;;;;;;5.20;4.60;;;;;;;;;;5095022;27;20261;-68
2022/09/03 06:49:20;;;;;;;4.63;4.20;;;;;;;;;;5090158;27;20248;-68
2022/09/03 06:51:47;;;;;;;6.22;3.90;;;;;;;;;;5094754;27;20224;-67
2022/09/03 06:54:15;;;;;;;4.15;3.80;;;;;;;;;;5100110;27;20208;-69
2022/09/03 06:56:42;;;;;;;4.18;3.85;;;;;;;;;;5098530;27;20199;-69
2022/09/03 06:59:11;;;;;;;3.88;3.58;;;;;;;;;;5096192;27;20371;-70
2022/09/03 07:01:39;;;;;;;3.92;3.35;;;;;;;;;;5113962;27;20239;-70
2022/09/03 07:04:11;;;;;;;3.80;3.50;;;;;;;;;;5099250;27;20259;-68
2022/09/03 07:06:40;;;;;;;4.55;3.75;;;;;;;;;;5098593;27;20243;-68
2022/09/03 07:09:09;;;;;;;3.60;3.28;;;;;;;;;;5095210;27;20295;-70
2022/09/03 07:11:39;;;;;;;3.72;3.42;;;;;;;;;;5107100;27;20308;-68
2022/09/03 07:14:06;;;;;;;3.65;3.40;;;;;;;;;;5107830;27;20204;-70
2022/09/03 07:16:35;;;;;;;5.43;3.83;;;;;;;;;;5100499;27;20578;-68
2022/09/03 07:19:07;;;;;;;3.90;3.60;;;;;;;;;;5097161;27;20256;-69
2022/09/03 07:21:37;;;;;;;3.92;3.53;;;;;;;;;;5101084;27;20283;-69
2022/09/03 07:24:05;;;;;;;3.40;3.10;;;;;;;;;;5112745;27;20237;-70
2022/09/03 07:26:36;;;;;;;3.72;3.40;;;;;;;;;;5132224;27;20262;-71
2022/09/03 07:29:04;;;;;;;3.42;3.10;;;;;;;;;;5102725;27;20245;-68
2022/09/03 07:31:33;;;;;;;3.50;3.17;;;;;;;;;;5114906;27;20272;-69
2022/09/03 07:34:05;;;;;;;3.03;2.83;;;;;;;;;;5099684;27;20231;-70
2022/09/03 07:36:41;;;;;;;3.15;2.70;;;;;;;;;;5090719;27;20268;-69
2022/09/03 07:39:10;;;;;;;2.55;2.35;;;;;;;;;;5118018;27;20203;-66
2022/09/03 07:41:37;;;;;;;2.65;2.45;;;;;;;;;;5100348;28;20223;-69
2022/09/03 07:44:05;;;;;;;2.20;2.10;;;;;;;;;;5099869;27;20220;-68
2022/09/03 07:46:33;;;;;;;2.53;2.33;;;;;;;;;;5094610;28;20215;-69
2022/09/03 07:49:01;;;;;;;2.50;2.40;;;;;;;;;;5101247;28;20605;-69
2022/09/03 07:51:30;;;;;;;2.78;2.50;;;;;;;;;;5105217;27;20227;-68
2022/09/03 07:53:58;;;;;;;2.20;2.10;;;;;;;;;;5117586;28;20207;-69
2022/09/03 07:56:26;;;;;;;2.50;2.30;;;;;;;;;;5103272;28;20207;-68
2022/09/03 07:58:56;;;;;;;2.85;2.65;;;;;;;;;;5099247;27;20199;-69
2022/09/03 08:01:26;;;;;;;4.13;2.42;;;;;;;;;;5092043;28;21229;-67
2022/09/03 08:03:54;;;;;;;2.40;2.20;;;;;;;;;;5090823;27;20822;-68
2022/09/03 08:06:23;;;;;;;1.95;1.85;;;;;;;;;;5078328;27;20203;-68
2022/09/03 08:09:00;;;;;;;2.05;1.80;;;;;;;;;;5101910;27;20244;-69
2022/09/03 08:11:33;;;;;;;2.13;2.03;;;;;;;;;;5074929;28;20285;-68
2022/09/03 08:14:05;;;;;;;1.80;1.70;;;;;;;;;;5082410;27;20208;-69
2022/09/03 08:16:37;;;;;;;2.35;1.80;;;;;;;;;;5105817;27;20216;-69
2022/09/03 08:19:04;;;;;;;1.88;1.77;;;;;;;;;;5082130;28;20228;-69
2022/09/03 08:21:32;;;;;;;2.17;2.08;;;;;;;;;;5088768;28;20220;-68
2022/09/03 08:24:03;;;;;;;2.17;2.08;;;;;;;;;;5089225;27;20279;-67
2022/09/03 08:26:35;;;;;;;1.75;1.65;;;;;;;;;;5068768;27;20200;-69
2022/09/03 08:29:04;;;;;;;2.47;2.28;;;;;;;;;;5086932;28;20201;-67
2022/09/03 08:31:32;;;;;;;2.83;2.00;;;;;;;;;;5096052;27;20231;-70
2022/09/03 08:34:05;;;;;;;2.40;1.80;;;;;;;;;;5085158;28;20231;-68
2022/09/03 08:36:35;;;;;;;1.90;1.80;;;;;;;;;;5087182;28;20207;-67
2022/09/03 08:39:03;;;;;;;2.35;1.67;;;;;;;;;;5101333;27;20252;-67
2022/09/03 08:41:36;;;;;;;1.95;1.50;;;;;;;;;;5077301;28;20223;-67
2022/09/03 08:44:07;;;;;;;1.95;1.60;;;;;;;;;;5086406;27;20211;-69
2022/09/03 08:46:45;;;;;;;2.58;1.67;;;;;;;;;;5091926;27;20706;-69
2022/09/03 08:49:15;;;;;;;1.73;1.63;;;;;;;;;;5093280;27;20218;-68
2022/09/03 08:51:46;;;;;;;1.90;1.80;;;;;;;;;;5085336;27;20234;-68
2022/09/03 08:54:14;;;;;;;1.80;1.70;;;;;;;;;;5081069;27;20207;-69
2022/09/03 08:56:43;;;;;;;1.98;1.63;;;;;;;;;;5086223;27;20199;-69
2022/09/03 08:59:10;;;;;;;1.90;1.80;;;;;;;;;;5094384;27;20253;-68
2022/09/03 09:01:46;;;;;;;2.15;2.05;;;;;;;;;;5084621;27;20227;-68
2022/09/03 09:04:14;;;;;;;2.08;1.63;;;;;;;;;;5081707;27;20229;-68
2022/09/03 09:06:42;;;;;;;2.05;1.90;;;;;;;;;;5096582;27;20247;-69
2022/09/03 09:09:19;;;;;;;1.88;1.77;;;;;;;;;;5114132;27;21514;-70
2022/09/03 09:11:50;;;;;;;2.00;1.90;;;;;;;;;;5101158;27;20228;-67
2022/09/03 09:14:25;;;;;;;1.90;1.80;;;;;;;;;;5094396;27;20212;-70
2022/09/03 09:16:54;;;;;;;1.90;1.80;;;;;;;;;;5087276;27;20212;-67
2022/09/03 09:19:29;;;;;;;2.72;2.00;;;;;;;;;;5090323;27;20200;-69
2022/09/03 09:22:01;;;;;;;2.20;2.05;;;;;;;;;;5086536;27;20234;-68
2022/09/03 09:24:34;;;;;;;2.35;2.15;;;;;;;;;;5071610;27;20227;-68
2022/09/03 09:27:04;;;;;;;2.08;1.95;;;;;;;;;;5083976;27;20289;-68
2022/09/03 09:29:32;;;;;;;4.32;2.15;;;;;;;;;;5080623;27;20280;-67
2022/09/03 09:32:00;;;;;;;2.35;2.15;;;;;;;;;;5082916;27;20219;-69
2022/09/03 09:34:28;;;;;;;2.00;1.90;;;;;;;;;;5090220;27;20209;-68
2022/09/03 09:36:55;;;;;;;1.98;1.88;;;;;;;;;;5097264;27;20211;-68
2022/09/03 09:39:23;;;;;;;2.45;2.30;;;;;;;;;;5080884;27;20576;-68
2022/09/03 09:42:07;;;;;;;2.20;2.10;;;;;;;;;;5089269;27;22554;-69
2022/09/03 09:44:35;;;;;;;2.67;2.10;;;;;;;;;;5090357;27;20733;-69
2022/09/03 09:47:07;;;;;;;2.83;2.15;;;;;;;;;;5093828;27;20666;-69
2022/09/03 09:49:36;;;;;;;2.17;1.98;;;;;;;;;;5081478;27;20204;-69
2022/09/03 09:52:07;;;;;;;2.10;2.00;;;;;;;;;;5099868;27;20319;-68
2022/09/03 09:54:34;;;;;;;2.42;2.28;;;;;;;;;;5086472;27;20452;-69
2022/09/03 09:57:04;;;;;;;2.83;2.40;;;;;;;;;;5102426;27;20299;-67
2022/09/03 09:59:32;;;;;;;2.50;2.30;;;;;;;;;;5095559;27;20200;-70
2022/09/03 10:02:14;;;;;;;2.42;2.33;;;;;;;;;;5095876;27;20223;-70
2022/09/03 10:04:49;;;;;;;2.60;2.40;;;;;;;;;;5090203;27;20595;-69
2022/09/03 10:07:21;;;;;;;2.55;2.35;;;;;;;;;;5084709;27;20248;-68
2022/09/03 10:09:59;;;;;;;3.00;2.50;;;;;;;;;;5092252;27;20227;-68
2022/09/03 10:12:35;;;;;;;2.45;2.35;;;;;;;;;;5109486;27;20891;-69
2022/09/03 10:15:04;;;;;;;2.22;2.13;;;;;;;;;;5095580;27;20208;-69
2022/09/03 10:17:50;;;;;;;2.47;2.30;;;;;;;;;;5102071;27;20203;-68
2022/09/03 10:20:38;;;;;;;2.40;2.20;;;;;;;;;;5104035;27;20279;-68
2022/09/03 10:23:24;;;;;;;2.47;2.30;;;;;;;;;;5094486;27;20301;-69
2022/09/03 10:26:03;;;;;;;2.47;2.38;;;;;;;;;;5093123;27;20567;-68
2022/09/03 10:28:32;;;;;;;3.28;2.72;;;;;;;;;;5099653;27;20199;-68
2022/09/03 10:31:19;;;;;;;2.63;2.20;;;;;;;;;;5102411;27;20915;-68
2022/09/03 10:34:17;;;;;;;2.08;1.98;;;;;;;;;;5101761;27;20261;-67
2022/09/03 10:36:50;;;;;;;2.38;2.17;;;;;;;;;;5091098;27;20237;-69
2022/09/03 10:39:18;;;;;;;2.17;2.03;;;;;;;;;;5104092;27;20207;-67
2022/09/03 10:42:02;;;;;;;2.85;2.20;;;;;;;;;;5091461;27;20224;-68
2022/09/03 10:44:34;;;;;;;3.33;2.58;;;;;;;;;;5080529;27;20733;-68
2022/09/03 10:47:22;;;;;;;2.60;2.40;;;;;;;;;;5090637;27;20213;-69
2022/09/03 10:50:09;;;;;;;3.58;2.25;;;;;;;;;;5083710;27;20252;-68
2022/09/03 10:52:48;;;;;;;3.17;2.05;;;;;;;;;;5096554;27;20300;-68
2022/09/03 10:55:17;;;;;;;2.38;2.20;;;;;;;;;;5092633;27;20203;-69
2022/09/03 10:57:51;;;;;;;2.47;2.28;;;;;;;;;;5089089;27;20203;-69
2022/09/03 11:00:19;;;;;;;2.58;2.38;;;;;;;;;;5102759;27;20203;-69
2022/09/03 11:02:47;;;;;;;2.20;2.10;;;;;;;;;;5098049;27;20238;-69
2022/09/03 11:05:22;;;;;;;2.38;2.17;;;;;;;;;;5087966;27;20249;-69
2022/09/03 11:08:02;;;;;;;2.20;2.00;;;;;;;;;;5108974;27;20765;-69
2022/09/03 11:10:34;;;;;;;2.35;2.00;;;;;;;;;;5089739;27;20199;-69
2022/09/03 11:13:14;;;;;;;2.80;2.30;;;;;;;;;;5091795;27;20231;-68
2022/09/03 11:15:48;;;;;;;2.10;2.00;;;;;;;;;;5099820;27;20224;-66
2022/09/03 11:18:20;;;;;;;2.33;2.17;;;;;;;;;;5096504;27;20238;-69
2022/09/03 11:20:49;;;;;;;2.80;2.60;;;;;;;;;;5092827;27;20200;-69
2022/09/03 11:23:18;;;;;;;4.60;2.60;;;;;;;;;;5082306;27;20728;-69
2022/09/03 11:25:49;;;;;;;2.60;2.40;;;;;;;;;;5088798;27;20215;-66
2022/09/03 11:28:17;;;;;;;3.35;2.85;;;;;;;;;;5068253;27;20203;-65
2022/09/03 11:31:04;;;;;;;2.97;2.55;;;;;;;;;;5086770;27;20291;-69
2022/09/03 11:33:36;;;;;;;2.50;2.30;;;;;;;;;;5113283;27;20234;-66
2022/09/03 11:36:05;;;;;;;6.05;1.70;;;;;;;;;;5106741;27;20207;-70
2022/09/03 11:38:33;;;;;;;2.47;1.35;;;;;;;;;;5097019;28;20599;-64
2022/09/03 11:41:14;;;;;;;1.98;1.40;;;;;;;;;;5093226;27;20211;-75
2022/09/03 11:43:42;;;;;;;3.40;1.30;;;;;;;;;;5095905;28;20246;-72
2022/09/03 11:46:22;;;;;;;1.02;1.00;;;;;;;;;;5087668;27;20216;-68
2022/09/03 11:48:51;;;;;;;0.82;0.82;;;;;;;;;;5086755;28;21153;-70
2022/09/03 11:51:36;;;;;;;0.93;0.73;;;;;;;;;;5089000;28;20260;-68
2022/09/03 11:54:04;;;;;;;1.00;0.70;;;;;;;;;;5087666;27;20278;-72
2022/09/03 11:56:32;;;;;;;1.07;0.93;;;;;;;;;;5076815;28;20203;-68
2022/09/03 11:58:59;;;;;;;0.80;0.80;;;;;;;;;;5095528;27;20229;-70
2022/09/03 12:01:27;;;;;;;0.97;0.97;;;;;;;;;;5119361;28;20264;-67
2022/09/03 12:04:03;;;;;;;1.33;1.00;;;;;;;;;;5093203;28;20208;-71
2022/09/03 12:06:55;;;;;;;1.13;1.13;;;;;;;;;;5104517;27;20210;-65
2022/09/03 12:09:45;;;;;;;0.90;0.90;;;;;;;;;;5090104;28;20207;-70
2022/09/03 12:12:33;;;;;;;0.80;0.80;;;;;;;;;;5083052;28;20235;-70
2022/09/03 12:15:01;;;;;;;2.25;1.00;;;;;;;;;;5049917;28;20201;-72
2022/09/03 12:17:28;;;;;;;2.80;1.10;;;;;;;;;;5086236;28;20203;-67
2022/09/03 12:19:57;;;;;;;1.55;1.45;;;;;;;;;;5098829;27;20207;-70
2022/09/03 12:22:30;;;;;;;0.70;0.70;;;;;;;;;;5119172;27;20227;-72
2022/09/03 12:25:07;;;;;;;1.95;1.40;;;;;;;;;;5092998;27;20227;-67
2022/09/03 12:27:38;;;;;;;1.08;0.82;;;;;;;;;;5102292;27;20206;-72
2022/09/03 12:30:14;;;;;;;1.50;0.98;;;;;;;;;;5109445;27;20196;-72
2022/09/03 12:32:42;;;;;;;1.92;0.90;;;;;;;;;;5115548;27;20226;-70
2022/09/03 12:35:17;;;;;;;0.68;0.68;;;;;;;;;;5098375;27;20212;-69
2022/09/03 12:38:04;;;;;;;0.77;0.77;;;;;;;;;;5108952;27;20207;-69
2022/09/03 12:40:35;;;;;;;1.20;0.80;;;;;;;;;;5087039;27;20291;-68
2022/09/03 12:43:26;;;;;;;1.58;0.60;;;;;;;;;;5097812;27;20223;-67
2022/09/03 12:46:14;;;;;;;0.93;0.90;;;;;;;;;;5091762;27;20252;-68
2022/09/03 12:48:53;;;;;;;0.88;0.85;;;;;;;;;;5102934;27;20210;-67
2022/09/03 12:51:41;;;;;;;0.90;0.77;;;;;;;;;;5099253;27;20219;-66
2022/09/03 12:54:22;;;;;;;0.88;0.88;;;;;;;;;;5097974;27;20259;-68
2022/09/03 12:56:57;;;;;;;0.70;0.70;;;;;;;;;;5088555;27;20220;-66
2022/09/03 12:59:27;;;;;;;0.60;0.60;;;;;;;;;;5115981;27;20207;-67
2022/09/03 13:01:57;;;;;;;2.28;0.95;;;;;;;;;;5106625;27;20239;-68
2022/09/03 13:04:31;;;;;;;0.73;0.63;;;;;;;;;;5100755;27;20287;-68
2022/09/03 13:07:08;;;;;;;0.95;0.77;;;;;;;;;;5078335;27;20210;-66
2022/09/03 13:09:37;;;;;;;1.80;0.90;;;;;;;;;;5088268;27;20199;-68
2022/09/03 13:12:05;;;;;;;0.90;0.90;;;;;;;;;;5080958;27;20234;-68
2022/09/03 13:14:46;;;;;;;0.93;0.93;;;;;;;;;;5079194;27;20256;-68
2022/09/03 13:17:31;;;;;;;1.23;0.80;;;;;;;;;;5088669;27;20297;-68
2022/09/03 13:19:59;;;;;;;1.13;1.00;;;;;;;;;;5083380;27;20211;-68
2022/09/03 13:22:26;;;;;;;0.82;0.82;;;;;;;;;;5078989;27;20232;-68
2022/09/03 13:25:14;;;;;;;1.00;0.98;;;;;;;;;;5077299;27;20222;-68
2022/09/03 13:27:44;;;;;;;0.93;0.93;;;;;;;;;;5075923;27;20201;-68
2022/09/03 13:30:16;;;;;;;1.05;0.95;;;;;;;;;;5074306;27;20199;-67
2022/09/03 13:32:49;;;;;;;1.02;1.00;;;;;;;;;;5080708;27;20223;-68
2022/09/03 13:35:19;;;;;;;1.00;1.00;;;;;;;;;;5079192;27;20587;-67
2022/09/03 13:38:06;;;;;;;1.13;1.00;;;;;;;;;;5077244;27;20208;-68
2022/09/03 13:40:48;;;;;;;1.00;0.95;;;;;;;;;;5071204;27;20211;-69
2022/09/03 13:43:16;;;;;;;0.90;0.90;;;;;;;;;;5094724;27;20234;-68
2022/09/03 13:45:50;;;;;;;1.75;0.88;;;;;;;;;;5069854;27;21165;-68
2022/09/03 13:51:32;;;;;;;1.15;1.08;;;;;;;;;;5099790;27;20203;-68
2022/09/03 13:54:18;;;;;;;0.98;0.90;;;;;;;;;;5078257;27;20200;-67
2022/09/03 13:57:08;;;;;;;0.80;0.80;;;;;;;;;;5076574;27;20204;-67
2022/09/03 13:59:36;;;;;;;1.50;0.57;;;;;;;;;;5081507;27;20243;-67
2022/09/03 14:02:04;;;;;;;1.33;0.80;;;;;;;;;;5086991;27;20326;-66
2022/09/03 14:04:41;;;;;;;0.70;0.65;;;;;;;;;;5079467;27;21641;-67
2022/09/03 14:07:13;;;;;;;2.05;0.80;;;;;;;;;;5111143;27;20214;-67
2022/09/03 14:10:01;;;;;;;0.70;0.70;;;;;;;;;;5090068;27;20261;-67
2022/09/03 14:12:37;;;;;;;0.60;0.60;;;;;;;;;;5093608;27;20220;-67
2022/09/03 14:15:24;;;;;;;0.60;0.40;;;;;;;;;;5087173;27;20218;-68
2022/09/03 14:17:59;;;;;;;1.42;0.50;;;;;;;;;;5095109;27;20405;-67
2022/09/03 14:20:33;;;;;;;0.40;0.40;;;;;;;;;;5089095;27;20244;-67
2022/09/03 14:23:19;;;;;;;0.40;0.40;;;;;;;;;;5085835;27;20219;-70
2022/09/03 14:25:56;;;;;;;0.63;0.63;;;;;;;;;;5102313;27;20230;-66
2022/09/03 14:28:30;;;;;;;0.60;0.60;;;;;;;;;;5095236;27;20203;-68
2022/09/03 14:30:58;;;;;;;0.82;0.43;;;;;;;;;;5098581;27;20557;-66
2022/09/03 14:33:36;;;;;;;1.05;0.60;;;;;;;;;;5113206;27;20653;-66
2022/09/03 14:36:06;;;;;;;0.45;0.45;;;;;;;;;;5110834;27;20318;-67
2022/09/03 14:38:48;;;;;;;0.40;0.40;;;;;;;;;;5081896;27;20208;-68
2022/09/03 14:41:21;;;;;;;0.40;0.40;;;;;;;;;;5108811;27;20210;-70
2022/09/03 14:43:59;;;;;;;1.63;0.65;;;;;;;;;;5081934;27;20252;-66
2022/09/03 14:46:49;;;;;;;0.40;0.40;;;;;;;;;;5100557;27;20203;-66
2022/09/03 14:49:26;;;;;;;0.50;0.50;;;;;;;;;;5063249;27;20223;-67
2022/09/03 14:52:12;;;;;;;1.00;0.40;;;;;;;;;;5081774;27;20227;-67
2022/09/03 14:54:48;;;;;;;0.45;0.45;;;;;;;;;;5089962;27;20226;-70
2022/09/03 14:57:19;;;;;;;0.75;0.40;;;;;;;;;;5077317;27;20230;-68
2022/09/03 15:00:06;;;;;;;0.50;0.50;;;;;;;;;;5087146;27;20303;-69
2022/09/03 15:03:05;;;;;;;1.13;0.45;;;;;;;;;;5087151;27;20716;-67
2022/09/03 15:05:56;;;;;;;0.70;0.60;;;;;;;;;;5088894;27;20235;-67
2022/09/03 15:08:34;;;;;;;0.65;0.50;;;;;;;;;;5082532;27;20302;-68
2022/09/03 15:11:02;;;;;;;0.60;0.60;;;;;;;;;;5095698;27;20216;-65
2022/09/03 15:13:32;;;;;;;2.20;0.50;;;;;;;;;;5089397;27;20223;-68
2022/09/03 15:16:00;;;;;;;0.50;0.50;;;;;;;;;;5113922;27;20199;-69
2022/09/03 15:18:30;;;;;;;0.47;0.38;;;;;;;;;;5118233;27;20215;-67
2022/09/03 15:21:12;;;;;;;1.05;0.43;;;;;;;;;;5074815;27;20265;-67
2022/09/03 15:23:39;;;;;;;0.68;0.68;;;;;;;;;;5080424;27;20632;-65
2022/09/03 15:26:07;;;;;;;0.50;0.50;;;;;;;;;;5085507;27;20227;-68
2022/09/03 15:28:34;;;;;;;0.77;0.70;;;;;;;;;;5094698;27;20200;-67